sensor_id;sensor_type;location;lat;lon;timestamp;pressure;altitude;pressure_sealevel;temperature;humidity
69836;BME280;57132;51.972;4.450;2023-05-24T00:02:07;102523.44;;;6.74;100.00
69836;BME280;57132;51.972;4.450;2023-05-24T00:04:33;102525.25;;;6.72;100.00
69836;BME280;57132;51.972;4.450;2023-05-24T00:07:01;102520.00;;;6.69;100.00
69836;BME280;57132;51.972;4.450;2023-05-24T00:09:28;102511.25;;;6.65;100.00
69836;BME280;57132;51.972;4.450;2023-05-24T00:11:54;102515.72;;;6.64;100.00
69836;BME280;57132;51.972;4.450;2023-05-24T00:14:19;102514.84;;;6.64;100.00
69836;BME280;57132;51.972;4.450;2023-05-24T00:16:44;102508.72;;;6.62;100.00
69836;BME280;57132;51.972;4.450;2023-05-24T00:19:13;102504.22;;;6.64;100.00
69836;BME280;57132;51.972;4.450;2023-05-24T00:21:45;102502.44;;;6.64;100.00
69836;BME280;57132;51.972;4.450;2023-05-24T00:24:11;102502.41;;;6.66;100.00
69836;BME280;57132;51.972;4.450;2023-05-24T00:26:36;102501.56;;;6.65;100.00
69836;BME280;57132;51.972;4.450;2023-05-24T00:29:02;102506.81;;;6.67;100.00
69836;BME280;57132;51.972;4.450;2023-05-24T00:31:27;102500.63;;;6.67;100.00
69836;BME280;57132;51.972;4.450;2023-05-24T00:33:53;102498.84;;;6.67;100.00
69836;BME280;57132;51.972;4.450;2023-05-24T00:36:18;102504.16;;;6.67;100.00
69836;BME280;57132;51.972;4.450;2023-05-24T00:38:43;102506.84;;;6.65;100.00
69836;BME280;57132;51.972;4.450;2023-05-24T00:41:09;102504.31;;;6.61;100.00
69836;BME280;57132;51.972;4.450;2023-05-24T00:43:36;102502.63;;;6.58;100.00
69836;BME280;57132;51.972;4.450;2023-05-24T00:46:28;102505.31;;;6.57;100.00
69836;BME280;57132;51.972;4.450;2023-05-24T00:48:54;102505.34;;;6.55;100.00
69836;BME280;57132;51.972;4.450;2023-05-24T00:51:20;102506.28;;;6.53;100.00
69836;BME280;57132;51.972;4.450;2023-05-24T00:53:47;102504.69;;;6.47;100.00
69836;BME280;57132;51.972;4.450;2023-05-24T00:56:14;102504.69;;;6.47;100.00
69836;BME280;57132;51.972;4.450;2023-05-24T00:58:40;102505.50;;;6.49;100.00
69836;BME280;57132;51.972;4.450;2023-05-24T01:01:06;102513.38;;;6.52;100.00
69836;BME280;57132;51.972;4.450;2023-05-24T01:03:32;102506.28;;;6.54;100.00
69836;BME280;57132;51.972;4.450;2023-05-24T01:06:05;102506.28;;;6.54;100.00
69836;BME280;57132;51.972;4.450;2023-05-24T01:11:25;102500.09;;;6.54;100.00
69836;BME280;57132;51.972;4.450;2023-05-24T01:14:20;102496.22;;;6.33;100.00
69836;BME280;57132;51.972;4.450;2023-05-24T01:27:49;102498.31;;;6.22;100.00
69836;BME280;57132;51.972;4.450;2023-05-24T01:30:15;102500.72;;;6.31;100.00
69836;BME280;57132;51.972;4.450;2023-05-24T01:32:41;102503.19;;;6.37;100.00
69836;BME280;57132;51.972;4.450;2023-05-24T01:35:07;102504.81;;;6.43;100.00
69836;BME280;57132;51.972;4.450;2023-05-24T01:37:32;102501.19;;;6.47;100.00
69836;BME280;57132;51.972;4.450;2023-05-24T01:39:58;102500.13;;;6.52;100.00
69836;BME280;57132;51.972;4.450;2023-05-24T01:45:19;102495.94;;;6.44;100.00
69836;BME280;57132;51.972;4.450;2023-05-24T01:48:19;102490.13;;;6.29;100.00
69836;BME280;57132;51.972;4.450;2023-05-24T01:50:53;102489.63;;;6.15;100.00
69836;BME280;57132;51.972;4.450;2023-05-24T01:53:21;102489.09;;;6.02;100.00
69836;BME280;57132;51.972;4.450;2023-05-24T01:55:51;102492.81;;;5.94;100.00
69836;BME280;57132;51.972;4.450;2023-05-24T01:58:20;102487.66;;;5.86;100.00
69836;BME280;57132;51.972;4.450;2023-05-24T02:00:46;102488.75;;;5.79;100.00
69836;BME280;57132;51.972;4.450;2023-05-24T02:03:15;102486.28;;;5.71;100.00
69836;BME280;57132;51.972;4.450;2023-05-24T02:05:41;102484.69;;;5.64;100.00
69836;BME280;57132;51.972;4.450;2023-05-24T02:08:08;102486.59;;;5.57;100.00
69836;BME280;57132;51.972;4.450;2023-05-24T02:10:34;102485.03;;;5.49;100.00
69836;BME280;57132;51.972;4.450;2023-05-24T02:13:02;102496.63;;;5.45;100.00
69836;BME280;57132;51.972;4.450;2023-05-24T02:15:27;102497.59;;;5.40;100.00
69836;BME280;57132;51.972;4.450;2023-05-24T02:17:54;102485.38;;;5.35;100.00
69836;BME280;57132;51.972;4.450;2023-05-24T02:20:19;102481.91;;;5.31;100.00
69836;BME280;57132;51.972;4.450;2023-05-24T02:22:47;102486.41;;;5.28;100.00
69836;BME280;57132;51.972;4.450;2023-05-24T02:25:13;102483.78;;;5.26;100.00
69836;BME280;57132;51.972;4.450;2023-05-24T02:27:38;102483.75;;;5.28;100.00
69836;BME280;57132;51.972;4.450;2023-05-24T02:30:05;102488.09;;;5.32;100.00
69836;BME280;57132;51.972;4.450;2023-05-24T02:32:31;102488.88;;;5.35;100.00
69836;BME280;57132;51.972;4.450;2023-05-24T02:34:57;102484.41;;;5.39;100.00
69836;BME280;57132;51.972;4.450;2023-05-24T02:37:23;102493.16;;;5.41;100.00
69836;BME280;57132;51.972;4.450;2023-05-24T02:39:49;102479.91;;;5.41;100.00
69836;BME280;57132;51.972;4.450;2023-05-24T02:42:15;102486.94;;;5.42;100.00
69836;BME280;57132;51.972;4.450;2023-05-24T02:44:40;102485.19;;;5.42;100.00
69836;BME280;57132;51.972;4.450;2023-05-24T02:47:07;102486.81;;;5.48;100.00
69836;BME280;57132;51.972;4.450;2023-05-24T02:49:32;102480.47;;;5.55;100.00
69836;BME280;57132;51.972;4.450;2023-05-24T02:51:58;102477.78;;;5.58;100.00
69836;BME280;57132;51.972;4.450;2023-05-24T02:54:24;102485.50;;;5.66;100.00
69836;BME280;57132;51.972;4.450;2023-05-24T02:56:49;102481.88;;;5.70;100.00
69836;BME280;57132;51.972;4.450;2023-05-24T02:59:15;102486.28;;;5.71;100.00
69836;BME280;57132;51.972;4.450;2023-05-24T03:01:41;102483.59;;;5.73;100.00
69836;BME280;57132;51.972;4.450;2023-05-24T03:04:07;102480.00;;;5.75;100.00
69836;BME280;57132;51.972;4.450;2023-05-24T03:06:32;102488.75;;;5.79;100.00
69836;BME280;57132;51.972;4.450;2023-05-24T03:08:57;102484.50;;;5.72;100.00
69836;BME280;57132;51.972;4.450;2023-05-24T03:11:23;102476.91;;;5.56;100.00
69836;BME280;57132;51.972;4.450;2023-05-24T03:13:49;102485.22;;;5.41;100.00
69836;BME280;57132;51.972;4.450;2023-05-24T03:16:14;102473.94;;;5.33;100.00
69836;BME280;57132;51.972;4.450;2023-05-24T03:18:41;102473.19;;;5.26;100.00
69836;BME280;57132;51.972;4.450;2023-05-24T03:21:06;102475.94;;;5.23;100.00
69836;BME280;57132;51.972;4.450;2023-05-24T03:23:31;102474.16;;;5.22;100.00
69836;BME280;57132;51.972;4.450;2023-05-24T03:25:57;102473.22;;;5.25;100.00
69836;BME280;57132;51.972;4.450;2023-05-24T03:28:22;102467.88;;;5.28;100.00
69836;BME280;57132;51.972;4.450;2023-05-24T03:30:48;102469.50;;;5.33;100.00
69836;BME280;57132;51.972;4.450;2023-05-24T03:33:14;102468.56;;;5.36;100.00
69836;BME280;57132;51.972;4.450;2023-05-24T03:35:39;102469.31;;;5.41;100.00
69836;BME280;57132;51.972;4.450;2023-05-24T03:38:05;102462.19;;;5.45;100.00
69836;BME280;57132;51.972;4.450;2023-05-24T03:40:30;102460.28;;;5.50;100.00
69836;BME280;57132;51.972;4.450;2023-05-24T03:42:57;102460.22;;;5.53;100.00
69836;BME280;57132;51.972;4.450;2023-05-24T03:45:23;102456.66;;;5.55;100.00
69836;BME280;57132;51.972;4.450;2023-05-24T03:47:48;102460.97;;;5.59;100.00
69836;BME280;57132;51.972;4.450;2023-05-24T03:50:13;102462.63;;;5.63;100.00
69836;BME280;57132;51.972;4.450;2023-05-24T03:52:41;102461.66;;;5.67;100.00
69836;BME280;57132;51.972;4.450;2023-05-24T03:55:06;102467.69;;;5.73;100.00
69836;BME280;57132;51.972;4.450;2023-05-24T03:57:32;102467.63;;;5.76;100.00
69836;BME280;57132;51.972;4.450;2023-05-24T03:59:57;102464.03;;;5.78;100.00
69836;BME280;57132;51.972;4.450;2023-05-24T04:02:24;102460.34;;;5.84;100.00
69836;BME280;57132;51.972;4.450;2023-05-24T04:04:49;102454.91;;;5.90;100.00
69836;BME280;57132;51.972;4.450;2023-05-24T04:07:15;102464.50;;;5.96;100.00
69836;BME280;57132;51.972;4.450;2023-05-24T04:09:41;102463.41;;;6.04;100.00
69836;BME280;57132;51.972;4.450;2023-05-24T04:12:07;102466.66;;;6.15;100.00
69836;BME280;57132;51.972;4.450;2023-05-24T04:14:32;102476.06;;;6.27;100.00
69836;BME280;57132;51.972;4.450;2023-05-24T04:16:59;102480.09;;;6.40;100.00
69836;BME280;57132;51.972;4.450;2023-05-24T04:19:26;102479.56;;;6.60;100.00
69836;BME280;57132;51.972;4.450;2023-05-24T04:21:51;102484.28;;;6.82;100.00
69836;BME280;57132;51.972;4.450;2023-05-24T04:24:17;102478.38;;;7.02;100.00
69836;BME280;57132;51.972;4.450;2023-05-24T04:26:42;102484.03;;;7.21;100.00
69836;BME280;57132;51.972;4.450;2023-05-24T04:29:08;102491.31;;;7.42;100.00
69836;BME280;57132;51.972;4.450;2023-05-24T04:31:34;102492.31;;;7.66;100.00
69836;BME280;57132;51.972;4.450;2023-05-24T04:33:59;102493.13;;;7.96;100.00
69836;BME280;57132;51.972;4.450;2023-05-24T04:36:25;102487.84;;;8.21;100.00
69836;BME280;57132;51.972;4.450;2023-05-24T04:38:50;102493.03;;;8.51;100.00
69836;BME280;57132;51.972;4.450;2023-05-24T04:41:20;102491.91;;;8.81;100.00
69836;BME280;57132;51.972;4.450;2023-05-24T04:43:46;102495.22;;;9.11;100.00
69836;BME280;57132;51.972;4.450;2023-05-24T04:46:12;102498.09;;;9.29;100.00
69836;BME280;57132;51.972;4.450;2023-05-24T04:48:37;102494.41;;;9.33;100.00
69836;BME280;57132;51.972;4.450;2023-05-24T04:51:02;102485.41;;;9.57;100.00
69836;BME280;57132;51.972;4.450;2023-05-24T04:53:28;102495.38;;;9.96;100.00
69836;BME280;57132;51.972;4.450;2023-05-24T04:55:54;102489.81;;;10.23;100.00
69836;BME280;57132;51.972;4.450;2023-05-24T04:58:20;102496.25;;;10.59;100.00
69836;BME280;57132;51.972;4.450;2023-05-24T05:00:45;102495.66;;;10.92;100.00
69836;BME280;57132;51.972;4.450;2023-05-24T05:03:10;102493.03;;;11.11;100.00
69836;BME280;57132;51.972;4.450;2023-05-24T05:05:39;102482.69;;;11.22;100.00
69836;BME280;57132;51.972;4.450;2023-05-24T05:08:05;102475.81;;;11.36;100.00
69836;BME280;57132;51.972;4.450;2023-05-24T05:10:30;102472.50;;;11.49;100.00
69836;BME280;57132;51.972;4.450;2023-05-24T05:12:55;102468.34;;;11.61;100.00
69836;BME280;57132;51.972;4.450;2023-05-24T05:15:22;102469.44;;;11.93;100.00
69836;BME280;57132;51.972;4.450;2023-05-24T05:17:48;102470.75;;;12.54;100.00
69836;BME280;57132;51.972;4.450;2023-05-24T05:20:13;102467.38;;;13.48;100.00
69836;BME280;57132;51.972;4.450;2023-05-24T05:22:39;102469.66;;;14.46;100.00
69836;BME280;57132;51.972;4.450;2023-05-24T05:25:09;102478.28;;;15.37;100.00
69836;BME280;57132;51.972;4.450;2023-05-24T05:27:34;102454.78;;;16.08;100.00
69836;BME280;57132;51.972;4.450;2023-05-24T05:30:00;102461.16;;;16.70;100.00
69836;BME280;57132;51.972;4.450;2023-05-24T05:32:25;102461.97;;;16.07;100.00
69836;BME280;57132;51.972;4.450;2023-05-24T05:34:51;102455.97;;;14.80;100.00
69836;BME280;57132;51.972;4.450;2023-05-24T05:37:16;102460.66;;;13.87;100.00
69836;BME280;57132;51.972;4.450;2023-05-24T05:39:41;102463.94;;;13.31;100.00
69836;BME280;57132;51.972;4.450;2023-05-24T05:42:07;102471.59;;;12.72;100.00
69836;BME280;57132;51.972;4.450;2023-05-24T05:44:32;102472.53;;;12.38;100.00
69836;BME280;57132;51.972;4.450;2023-05-24T05:46:58;102476.56;;;12.12;100.00
69836;BME280;57132;51.972;4.450;2023-05-24T05:49:23;102483.56;;;11.97;100.00
69836;BME280;57132;51.972;4.450;2023-05-24T05:51:48;102484.38;;;11.80;100.00
69836;BME280;57132;51.972;4.450;2023-05-24T05:54:14;102484.88;;;11.69;100.00
69836;BME280;57132;51.972;4.450;2023-05-24T05:56:43;102480.00;;;11.60;100.00
69836;BME280;57132;51.972;4.450;2023-05-24T05:59:13;102484.41;;;11.61;100.00
69836;BME280;57132;51.972;4.450;2023-05-24T06:01:39;102484.53;;;11.58;100.00
69836;BME280;57132;51.972;4.450;2023-05-24T06:04:05;102486.59;;;11.53;100.00
69836;BME280;57132;51.972;4.450;2023-05-24T06:06:31;102485.00;;;11.49;100.00
69836;BME280;57132;51.972;4.450;2023-05-24T06:08:58;102482.47;;;11.46;100.00
69836;BME280;57132;51.972;4.450;2023-05-24T06:11:23;102480.66;;;11.46;100.00
69836;BME280;57132;51.972;4.450;2023-05-24T06:13:48;102485.72;;;11.52;100.00
69836;BME280;57132;51.972;4.450;2023-05-24T06:16:14;102484.81;;;11.52;100.00
69836;BME280;57132;51.972;4.450;2023-05-24T06:18:40;102491.84;;;11.54;100.00
69836;BME280;57132;51.972;4.450;2023-05-24T06:21:05;102492.72;;;11.55;100.00
69836;BME280;57132;51.972;4.450;2023-05-24T06:23:34;102493.66;;;11.54;100.00
69836;BME280;57132;51.972;4.450;2023-05-24T06:26:00;102492.78;;;11.53;100.00
69836;BME280;57132;51.972;4.450;2023-05-24T06:28:26;102494.00;;;11.65;100.00
69836;BME280;57132;51.972;4.450;2023-05-24T06:30:51;102490.88;;;11.74;100.00
69836;BME280;57132;51.972;4.450;2023-05-24T06:33:16;102495.78;;;11.84;100.00
69836;BME280;57132;51.972;4.450;2023-05-24T06:35:42;102494.50;;;11.92;100.00
69836;BME280;57132;51.972;4.450;2023-05-24T06:38:07;102493.06;;;11.85;100.00
69836;BME280;57132;51.972;4.450;2023-05-24T06:40:33;102504.31;;;11.92;100.00
69836;BME280;57132;51.972;4.450;2023-05-24T06:42:58;102493.44;;;11.95;100.00
69836;BME280;57132;51.972;4.450;2023-05-24T06:45:24;102490.00;;;11.93;100.00
69836;BME280;57132;51.972;4.450;2023-05-24T06:47:49;102498.03;;;12.10;100.00
69836;BME280;57132;51.972;4.450;2023-05-24T06:50:15;102482.59;;;12.15;100.00
69836;BME280;57132;51.972;4.450;2023-05-24T06:52:40;102492.44;;;12.15;100.00
69836;BME280;57132;51.972;4.450;2023-05-24T06:55:06;102488.03;;;12.14;100.00
69836;BME280;57132;51.972;4.450;2023-05-24T06:57:31;102493.22;;;11.99;100.00
69836;BME280;57132;51.972;4.450;2023-05-24T06:59:57;102487.72;;;12.02;100.00
69836;BME280;57132;51.972;4.450;2023-05-24T07:02:22;102485.66;;;12.07;100.00
69836;BME280;57132;51.972;4.450;2023-05-24T07:04:51;102483.41;;;12.17;100.00
69836;BME280;57132;51.972;4.450;2023-05-24T07:07:19;102488.19;;;12.45;100.00
69836;BME280;57132;51.972;4.450;2023-05-24T07:09:44;102492.47;;;12.98;100.00
69836;BME280;57132;51.972;4.450;2023-05-24T07:12:11;102485.81;;;13.55;100.00
69836;BME280;57132;51.972;4.450;2023-05-24T07:14:36;102487.75;;;13.98;100.00
69836;BME280;57132;51.972;4.450;2023-05-24T07:17:02;102486.00;;;14.27;100.00
69836;BME280;57132;51.972;4.450;2023-05-24T07:19:28;102491.41;;;14.42;100.00
69836;BME280;57132;51.972;4.450;2023-05-24T07:21:55;102490.88;;;14.51;100.00
69836;BME280;57132;51.972;4.450;2023-05-24T07:24:20;102498.28;;;14.76;100.00
69836;BME280;57132;51.972;4.450;2023-05-24T07:29:29;102494.38;;;14.82;100.00
69836;BME280;57132;51.972;4.450;2023-05-24T07:31:54;102500.31;;;14.72;100.00
69836;BME280;57132;51.972;4.450;2023-05-24T07:34:20;102498.78;;;14.54;100.00
69836;BME280;57132;51.972;4.450;2023-05-24T07:36:46;102502.84;;;14.45;100.00
69836;BME280;57132;51.972;4.450;2023-05-24T07:39:13;102501.63;;;14.51;100.00
69836;BME280;57132;51.972;4.450;2023-05-24T07:41:40;102506.88;;;14.97;100.00
69836;BME280;57132;51.972;4.450;2023-05-24T07:44:06;102504.59;;;15.46;100.00
69836;BME280;57132;51.972;4.450;2023-05-24T07:46:31;102502.25;;;15.96;100.00
69836;BME280;57132;51.972;4.450;2023-05-24T07:48:57;102499.41;;;15.85;100.00
69836;BME280;57132;51.972;4.450;2023-05-24T07:51:22;102508.44;;;15.42;100.00
69836;BME280;57132;51.972;4.450;2023-05-24T07:53:47;102500.06;;;15.47;100.00
69836;BME280;57132;51.972;4.450;2023-05-24T07:56:13;102499.38;;;15.43;100.00
69836;BME280;57132;51.972;4.450;2023-05-24T07:58:38;102497.47;;;15.45;100.00
69836;BME280;57132;51.972;4.450;2023-05-24T08:01:05;102510.94;;;15.45;100.00
69836;BME280;57132;51.972;4.450;2023-05-24T08:03:30;102499.69;;;15.53;100.00
69836;BME280;57132;51.972;4.450;2023-05-24T08:05:56;102505.91;;;15.54;100.00
69836;BME280;57132;51.972;4.450;2023-05-24T08:08:24;102509.22;;;15.30;100.00
69836;BME280;57132;51.972;4.450;2023-05-24T08:10:49;102509.34;;;15.29;100.00
69836;BME280;57132;51.972;4.450;2023-05-24T08:13:16;102505.78;;;14.99;100.00
69836;BME280;57132;51.972;4.450;2023-05-24T08:15:41;102506.94;;;14.95;100.00
69836;BME280;57132;51.972;4.450;2023-05-24T08:18:06;102506.09;;;14.95;100.00
69836;BME280;57132;51.972;4.450;2023-05-24T08:20:33;102503.06;;;15.28;100.00
69836;BME280;57132;51.972;4.450;2023-05-24T08:23:00;102502.75;;;15.47;100.00
69836;BME280;57132;51.972;4.450;2023-05-24T08:25:26;102497.84;;;15.54;100.00
69836;BME280;57132;51.972;4.450;2023-05-24T08:27:51;102502.91;;;15.58;100.00
69836;BME280;57132;51.972;4.450;2023-05-24T08:30:17;102496.56;;;15.73;100.00
69836;BME280;57132;51.972;4.450;2023-05-24T08:32:44;102495.75;;;15.86;100.00
69836;BME280;57132;51.972;4.450;2023-05-24T08:35:09;102490.81;;;15.92;100.00
69836;BME280;57132;51.972;4.450;2023-05-24T08:37:35;102495.88;;;16.37;100.00
69836;BME280;57132;51.972;4.450;2023-05-24T08:40:01;102492.19;;;16.25;98.86
69836;BME280;57132;51.972;4.450;2023-05-24T08:42:27;102494.56;;;16.30;100.00
69836;BME280;57132;51.972;4.450;2023-05-24T08:45:03;102491.53;;;16.34;100.00
69836;BME280;57132;51.972;4.450;2023-05-24T08:47:32;102493.31;;;16.48;100.00
69836;BME280;57132;51.972;4.450;2023-05-24T08:49:59;102493.59;;;16.31;98.67
69836;BME280;57132;51.972;4.450;2023-05-24T08:52:26;102494.81;;;16.39;99.37
69836;BME280;57132;51.972;4.450;2023-05-24T08:54:52;102489.94;;;16.44;97.56
69836;BME280;57132;51.972;4.450;2023-05-24T08:57:19;102495.75;;;16.38;97.38
69836;BME280;57132;51.972;4.450;2023-05-24T08:59:45;102490.16;;;16.41;100.00
69836;BME280;57132;51.972;4.450;2023-05-24T09:02:13;102496.72;;;16.37;97.99
69836;BME280;57132;51.972;4.450;2023-05-24T09:04:40;102496.72;;;16.25;94.26
69836;BME280;57132;51.972;4.450;2023-05-24T09:07:09;102501.84;;;16.15;96.43
69836;BME280;57132;51.972;4.450;2023-05-24T09:09:41;102498.63;;;16.22;92.98
69836;BME280;57132;51.972;4.450;2023-05-24T09:12:10;102499.28;;;16.26;93.19
69836;BME280;57132;51.972;4.450;2023-05-24T09:14:42;102496.59;;;16.13;94.67
69836;BME280;57132;51.972;4.450;2023-05-24T09:17:10;102499.25;;;16.01;95.20
69836;BME280;57132;51.972;4.450;2023-05-24T09:19:37;102497.22;;;15.77;96.60
69836;BME280;57132;51.972;4.450;2023-05-24T09:22:04;102495.28;;;15.79;96.71
69836;BME280;57132;51.972;4.450;2023-05-24T09:24:31;102492.69;;;15.78;94.37
69836;BME280;57132;51.972;4.450;2023-05-24T09:27:05;102495.78;;;15.98;100.00
69836;BME280;57132;51.972;4.450;2023-05-24T09:29:34;102494.53;;;16.04;92.62
69836;BME280;57132;51.972;4.450;2023-05-24T09:32:00;102493.66;;;16.04;93.95
69836;BME280;57132;51.972;4.450;2023-05-24T09:34:26;102489.78;;;16.08;97.23
69836;BME280;57132;51.972;4.450;2023-05-24T09:36:51;102491.22;;;16.39;97.34
69836;BME280;57132;51.972;4.450;2023-05-24T09:39:18;102490.53;;;16.75;93.52
69836;BME280;57132;51.972;4.450;2023-05-24T09:41:51;102495.16;;;16.60;90.21
69836;BME280;57132;51.972;4.450;2023-05-24T09:44:23;102486.88;;;16.76;85.58
69836;BME280;57132;51.972;4.450;2023-05-24T09:46:49;102486.97;;;16.87;85.72
69836;BME280;57132;51.972;4.450;2023-05-24T09:49:14;102482.34;;;16.77;84.15
69836;BME280;57132;51.972;4.450;2023-05-24T09:51:39;102479.81;;;16.61;81.35
69836;BME280;57132;51.972;4.450;2023-05-24T09:54:15;102473.25;;;16.65;86.52
69836;BME280;57132;51.972;4.450;2023-05-24T09:56:48;102471.44;;;16.91;88.31
69836;BME280;57132;51.972;4.450;2023-05-24T09:59:15;102473.91;;;16.81;85.23
69836;BME280;57132;51.972;4.450;2023-05-24T10:01:40;102474.44;;;16.86;84.87
69836;BME280;57132;51.972;4.450;2023-05-24T10:04:06;102478.31;;;16.82;84.19
69836;BME280;57132;51.972;4.450;2023-05-24T10:06:34;102476.81;;;16.78;84.56
69836;BME280;57132;51.972;4.450;2023-05-24T10:09:03;102464.19;;;16.66;86.63
69836;BME280;57132;51.972;4.450;2023-05-24T10:11:36;102470.31;;;16.42;85.64
69836;BME280;57132;51.972;4.450;2023-05-24T10:14:03;102478.84;;;16.36;88.66
69836;BME280;57132;51.972;4.450;2023-05-24T10:16:31;102469.34;;;16.31;88.03
69836;BME280;57132;51.972;4.450;2023-05-24T10:18:56;102466.75;;;16.42;90.11
69836;BME280;57132;51.972;4.450;2023-05-24T10:21:22;102463.97;;;16.69;90.43
69836;BME280;57132;51.972;4.450;2023-05-24T10:23:53;102459.34;;;16.71;89.07
69836;BME280;57132;51.972;4.450;2023-05-24T10:26:23;102461.41;;;16.80;87.97
69836;BME280;57132;51.972;4.450;2023-05-24T10:28:56;102461.63;;;16.77;86.89
69836;BME280;57132;51.972;4.450;2023-05-24T10:31:38;102462.25;;;16.81;83.50
69836;BME280;57132;51.972;4.450;2023-05-24T10:34:24;102464.19;;;16.66;85.96
69836;BME280;57132;51.972;4.450;2023-05-24T10:36:50;102466.34;;;16.61;86.15
69836;BME280;57132;51.972;4.450;2023-05-24T10:39:19;102461.47;;;16.66;82.11
69836;BME280;57132;51.972;4.450;2023-05-24T10:41:45;102455.25;;;16.78;83.82
69836;BME280;57132;51.972;4.450;2023-05-24T10:44:12;102456.44;;;16.87;84.57
69836;BME280;57132;51.972;4.450;2023-05-24T10:47:09;102454.91;;;16.95;88.80
69836;BME280;57132;51.972;4.450;2023-05-24T10:49:37;102449.94;;;16.89;84.46
69836;BME280;57132;51.972;4.450;2023-05-24T10:52:09;102460.63;;;16.53;80.48
69836;BME280;57132;51.972;4.450;2023-05-24T10:54:36;102467.09;;;16.50;82.76
69836;BME280;57132;51.972;4.450;2023-05-24T10:57:02;102466.13;;;16.51;78.83
69836;BME280;57132;51.972;4.450;2023-05-24T10:59:38;102458.13;;;16.62;80.85
69836;BME280;57132;51.972;4.450;2023-05-24T11:02:08;102447.59;;;16.59;75.31
69836;BME280;57132;51.972;4.450;2023-05-24T11:04:41;102459.00;;;16.63;76.64
69836;BME280;57132;51.972;4.450;2023-05-24T11:07:12;102458.47;;;16.58;76.15
69836;BME280;57132;51.972;4.450;2023-05-24T11:09:39;102470.03;;;16.60;73.36
69836;BME280;57132;51.972;4.450;2023-05-24T11:12:17;102461.59;;;16.52;70.65
69836;BME280;57132;51.972;4.450;2023-05-24T11:14:50;102465.16;;;16.65;74.93
69836;BME280;57132;51.972;4.450;2023-05-24T11:17:19;102469.16;;;16.72;75.11
69836;BME280;57132;51.972;4.450;2023-05-24T11:19:46;102466.34;;;16.86;77.13
69836;BME280;57132;51.972;4.450;2023-05-24T11:22:13;102462.16;;;16.82;75.37
69836;BME280;57132;51.972;4.450;2023-05-24T11:24:40;102470.47;;;16.92;77.02
69836;BME280;57132;51.972;4.450;2023-05-24T11:27:10;102470.78;;;16.75;72.00
69836;BME280;57132;51.972;4.450;2023-05-24T11:29:40;102461.28;;;16.56;76.81
69836;BME280;57132;51.972;4.450;2023-05-24T11:32:06;102465.25;;;16.51;77.70
69836;BME280;57132;51.972;4.450;2023-05-24T11:34:33;102467.09;;;16.37;77.83
69836;BME280;57132;51.972;4.450;2023-05-24T11:37:00;102459.31;;;16.33;77.73
69836;BME280;57132;51.972;4.450;2023-05-24T11:39:34;102465.69;;;16.44;79.75
69836;BME280;57132;51.972;4.450;2023-05-24T11:42:03;102452.88;;;16.61;77.02
69836;BME280;57132;51.972;4.450;2023-05-24T11:44:30;102453.75;;;16.74;75.59
69836;BME280;57132;51.972;4.450;2023-05-24T11:46:59;102455.03;;;16.68;78.03
69836;BME280;57132;51.972;4.450;2023-05-24T11:49:26;102452.03;;;16.73;79.96
69836;BME280;57132;51.972;4.450;2023-05-24T11:51:56;102466.03;;;16.91;77.51
69836;BME280;57132;51.972;4.450;2023-05-24T11:54:23;102453.91;;;17.09;79.55
69836;BME280;57132;51.972;4.450;2023-05-24T11:56:55;102451.16;;;17.22;80.59
69836;BME280;57132;51.972;4.450;2023-05-24T11:59:27;102441.47;;;17.19;77.32
69836;BME280;57132;51.972;4.450;2023-05-24T12:02:00;102444.59;;;17.13;83.78
69836;BME280;57132;51.972;4.450;2023-05-24T12:04:41;102437.44;;;17.25;81.52
69836;BME280;57132;51.972;4.450;2023-05-24T12:07:09;102440.84;;;17.16;81.07
69836;BME280;57132;51.972;4.450;2023-05-24T12:09:39;102437.84;;;17.08;82.45
69836;BME280;57132;51.972;4.450;2023-05-24T12:12:07;102441.06;;;17.13;83.59
69836;BME280;57132;51.972;4.450;2023-05-24T12:14:34;102435.28;;;17.30;86.38
69836;BME280;57132;51.972;4.450;2023-05-24T12:17:00;102442.94;;;17.36;83.99
69836;BME280;57132;51.972;4.450;2023-05-24T12:19:31;102437.00;;;17.31;82.50
69836;BME280;57132;51.972;4.450;2023-05-24T12:22:05;102442.50;;;17.30;84.08
69836;BME280;57132;51.972;4.450;2023-05-24T12:24:38;102451.88;;;17.00;85.97
69836;BME280;57132;51.972;4.450;2023-05-24T12:27:04;102442.63;;;16.79;86.74
69836;BME280;57132;51.972;4.450;2023-05-24T12:29:39;102434.44;;;16.80;88.97
69836;BME280;57132;51.972;4.450;2023-05-24T12:32:05;102440.13;;;16.88;91.27
69836;BME280;57132;51.972;4.450;2023-05-24T12:34:36;102434.94;;;16.98;89.94
69836;BME280;57132;51.972;4.450;2023-05-24T12:37:03;102434.38;;;17.06;93.82
69836;BME280;57132;51.972;4.450;2023-05-24T12:39:29;102436.44;;;17.02;90.93
69836;BME280;57132;51.972;4.450;2023-05-24T12:41:59;102438.09;;;16.92;89.94
69836;BME280;57132;51.972;4.450;2023-05-24T12:44:29;102437.00;;;16.82;89.21
69836;BME280;57132;51.972;4.450;2023-05-24T12:46:56;102445.09;;;16.69;93.79
69836;BME280;57132;51.972;4.450;2023-05-24T12:49:23;102443.78;;;16.62;92.43
69836;BME280;57132;51.972;4.450;2023-05-24T12:51:49;102442.94;;;16.48;92.62
69836;BME280;57132;51.972;4.450;2023-05-24T12:54:22;102446.25;;;16.27;95.23
69836;BME280;57132;51.972;4.450;2023-05-24T12:56:48;102446.19;;;16.28;95.94
69836;BME280;57132;51.972;4.450;2023-05-24T12:59:14;102445.72;;;16.34;94.78
69836;BME280;57132;51.972;4.450;2023-05-24T13:01:39;102438.84;;;16.30;95.90
69836;BME280;57132;51.972;4.450;2023-05-24T13:04:05;102441.72;;;16.14;95.83
69836;BME280;57132;51.972;4.450;2023-05-24T13:06:33;102444.41;;;16.14;97.33
69836;BME280;57132;51.972;4.450;2023-05-24T13:09:02;102445.25;;;16.02;95.92